sensor_id;sensor_type;location;lat;lon;timestamp;temperature;humidity
30889;DHT22;51092;50.874;7.024;2023-05-14T00:00:15;11.10;99.90
30889;DHT22;51092;50.874;7.024;2023-05-14T00:01:17;11.10;99.90
30889;DHT22;51092;50.874;7.024;2023-05-14T00:02:19;11.00;99.90
30889;DHT22;51092;50.874;7.024;2023-05-14T00:03:21;11.00;99.90
30889;DHT22;51092;50.874;7.024;2023-05-14T00:04:23;11.00;99.90
30889;DHT22;51092;50.874;7.024;2023-05-14T00:05:26;11.00;99.90
30889;DHT22;51092;50.874;7.024;2023-05-14T00:06:27;11.00;99.90
30889;DHT22;51092;50.874;7.024;2023-05-14T00:07:30;11.00;99.90
30889;DHT22;51092;50.874;7.024;2023-05-14T00:08:31;11.00;99.90
30889;DHT22;51092;50.874;7.024;2023-05-14T00:09:35;11.00;99.90
30889;DHT22;51092;50.874;7.024;2023-05-14T00:10:36;11.00;99.90
30889;DHT22;51092;50.874;7.024;2023-05-14T00:11:39;10.90;99.90
30889;DHT22;51092;50.874;7.024;2023-05-14T00:12:42;10.90;99.90
30889;DHT22;51092;50.874;7.024;2023-05-14T00:13:44;10.90;99.90
30889;DHT22;51092;50.874;7.024;2023-05-14T00:14:46;10.90;99.90
30889;DHT22;51092;50.874;7.024;2023-05-14T00:15:48;10.90;99.90
30889;DHT22;51092;50.874;7.024;2023-05-14T00:16:50;10.80;99.90
30889;DHT22;51092;50.874;7.024;2023-05-14T00:17:52;10.90;99.90
30889;DHT22;51092;50.874;7.024;2023-05-14T00:18:54;10.80;99.90
30889;DHT22;51092;50.874;7.024;2023-05-14T00:19:56;10.80;99.90
30889;DHT22;51092;50.874;7.024;2023-05-14T00:20:57;10.80;99.90
30889;DHT22;51092;50.874;7.024;2023-05-14T00:22:00;10.70;99.90
30889;DHT22;51092;50.874;7.024;2023-05-14T00:23:01;10.70;99.90
30889;DHT22;51092;50.874;7.024;2023-05-14T00:24:04;10.60;99.90
30889;DHT22;51092;50.874;7.024;2023-05-14T00:25:07;10.70;99.90
30889;DHT22;51092;50.874;7.024;2023-05-14T00:26:09;10.70;99.90
30889;DHT22;51092;50.874;7.024;2023-05-14T00:27:11;10.70;99.90
30889;DHT22;51092;50.874;7.024;2023-05-14T00:28:15;10.70;99.90
30889;DHT22;51092;50.874;7.024;2023-05-14T00:29:17;10.70;99.90
30889;DHT22;51092;50.874;7.024;2023-05-14T00:30:19;10.70;99.90
30889;DHT22;51092;50.874;7.024;2023-05-14T00:31:20;10.70;99.90
30889;DHT22;51092;50.874;7.024;2023-05-14T00:32:22;10.70;99.90
30889;DHT22;51092;50.874;7.024;2023-05-14T00:33:23;10.70;99.90
30889;DHT22;51092;50.874;7.024;2023-05-14T00:34:25;10.70;99.90
30889;DHT22;51092;50.874;7.024;2023-05-14T00:35:27;10.70;99.90
30889;DHT22;51092;50.874;7.024;2023-05-14T00:36:29;10.70;99.90
30889;DHT22;51092;50.874;7.024;2023-05-14T00:37:30;10.60;99.90
30889;DHT22;51092;50.874;7.024;2023-05-14T00:38:32;10.60;99.90
30889;DHT22;51092;50.874;7.024;2023-05-14T00:39:33;10.60;99.90
30889;DHT22;51092;50.874;7.024;2023-05-14T00:40:36;10.50;99.90
30889;DHT22;51092;50.874;7.024;2023-05-14T00:41:38;10.50;99.90
30889;DHT22;51092;50.874;7.024;2023-05-14T00:42:40;10.50;99.90
30889;DHT22;51092;50.874;7.024;2023-05-14T00:43:43;10.40;99.90
30889;DHT22;51092;50.874;7.024;2023-05-14T00:44:46;10.40;99.90
30889;DHT22;51092;50.874;7.024;2023-05-14T00:45:49;10.30;99.90
30889;DHT22;51092;50.874;7.024;2023-05-14T00:46:52;10.40;99.90
30889;DHT22;51092;50.874;7.024;2023-05-14T00:47:54;10.30;99.90
30889;DHT22;51092;50.874;7.024;2023-05-14T00:48:57;10.30;99.90
30889;DHT22;51092;50.874;7.024;2023-05-14T00:50:00;10.20;99.90
30889;DHT22;51092;50.874;7.024;2023-05-14T00:51:03;10.20;99.90
30889;DHT22;51092;50.874;7.024;2023-05-14T00:52:05;10.20;99.90
30889;DHT22;51092;50.874;7.024;2023-05-14T00:53:08;10.10;99.90
30889;DHT22;51092;50.874;7.024;2023-05-14T00:54:10;10.10;99.90
30889;DHT22;51092;50.874;7.024;2023-05-14T00:55:15;10.10;99.90
30889;DHT22;51092;50.874;7.024;2023-05-14T00:56:17;10.10;99.90
30889;DHT22;51092;50.874;7.024;2023-05-14T00:57:20;10.10;99.90
30889;DHT22;51092;50.874;7.024;2023-05-14T00:58:22;10.00;99.90
30889;DHT22;51092;50.874;7.024;2023-05-14T00:59:27;10.00;99.90
30889;DHT22;51092;50.874;7.024;2023-05-14T01:00:28;10.00;99.90
30889;DHT22;51092;50.874;7.024;2023-05-14T01:01:31;10.10;99.90
30889;DHT22;51092;50.874;7.024;2023-05-14T01:02:31;10.10;99.90
30889;DHT22;51092;50.874;7.024;2023-05-14T01:03:33;10.10;99.90
30889;DHT22;51092;50.874;7.024;2023-05-14T01:04:35;10.10;99.90
30889;DHT22;51092;50.874;7.024;2023-05-14T01:05:42;10.10;99.90
30889;DHT22;51092;50.874;7.024;2023-05-14T01:06:56;10.10;99.90
30889;DHT22;51092;50.874;7.024;2023-05-14T01:08:05;10.10;99.90
30889;DHT22;51092;50.874;7.024;2023-05-14T01:09:14;10.20;99.90
30889;DHT22;51092;50.874;7.024;2023-05-14T01:10:23;10.10;99.90
30889;DHT22;51092;50.874;7.024;2023-05-14T01:11:28;10.00;99.90
30889;DHT22;51092;50.874;7.024;2023-05-14T01:12:35;9.90;99.90
30889;DHT22;51092;50.874;7.024;2023-05-14T01:13:43;9.90;99.90
30889;DHT22;51092;50.874;7.024;2023-05-14T01:14:53;9.80;99.90
30889;DHT22;51092;50.874;7.024;2023-05-14T01:15:55;9.80;99.90
30889;DHT22;51092;50.874;7.024;2023-05-14T01:17:01;9.80;99.90
30889;DHT22;51092;50.874;7.024;2023-05-14T01:18:06;9.70;99.90
30889;DHT22;51092;50.874;7.024;2023-05-14T01:19:20;9.70;99.90
30889;DHT22;51092;50.874;7.024;2023-05-14T01:20:22;9.70;99.90
30889;DHT22;51092;50.874;7.024;2023-05-14T01:21:35;9.80;99.90
30889;DHT22;51092;50.874;7.024;2023-05-14T01:22:37;9.80;99.90
30889;DHT22;51092;50.874;7.024;2023-05-14T01:23:40;9.70;99.90
30889;DHT22;51092;50.874;7.024;2023-05-14T01:24:41;9.70;99.90
30889;DHT22;51092;50.874;7.024;2023-05-14T01:25:43;9.70;99.90
30889;DHT22;51092;50.874;7.024;2023-05-14T01:26:46;9.70;99.90
30889;DHT22;51092;50.874;7.024;2023-05-14T01:27:52;9.70;99.90
30889;DHT22;51092;50.874;7.024;2023-05-14T01:29:01;9.70;99.90
30889;DHT22;51092;50.874;7.024;2023-05-14T01:30:10;9.70;99.90
30889;DHT22;51092;50.874;7.024;2023-05-14T01:31:17;9.70;99.90
30889;DHT22;51092;50.874;7.024;2023-05-14T01:32:24;9.80;99.90
30889;DHT22;51092;50.874;7.024;2023-05-14T01:33:28;9.80;99.90
30889;DHT22;51092;50.874;7.024;2023-05-14T01:34:32;9.80;99.90
30889;DHT22;51092;50.874;7.024;2023-05-14T01:35:36;9.80;99.90
30889;DHT22;51092;50.874;7.024;2023-05-14T01:36:39;9.80;99.90
30889;DHT22;51092;50.874;7.024;2023-05-14T01:37:43;9.80;99.90
30889;DHT22;51092;50.874;7.024;2023-05-14T01:38:45;9.80;99.90
30889;DHT22;51092;50.874;7.024;2023-05-14T01:39:48;9.80;99.90
30889;DHT22;51092;50.874;7.024;2023-05-14T01:40:51;9.90;99.90
30889;DHT22;51092;50.874;7.024;2023-05-14T01:41:54;9.80;99.90
30889;DHT22;51092;50.874;7.024;2023-05-14T01:42:56;9.90;99.90
30889;DHT22;51092;50.874;7.024;2023-05-14T01:43:58;9.90;99.90
30889;DHT22;51092;50.874;7.024;2023-05-14T01:45:00;9.90;99.90
30889;DHT22;51092;50.874;7.024;2023-05-14T01:46:03;9.90;99.90
30889;DHT22;51092;50.874;7.024;2023-05-14T01:47:05;9.90;99.90
30889;DHT22;51092;50.874;7.024;2023-05-14T01:48:07;9.90;99.90
30889;DHT22;51092;50.874;7.024;2023-05-14T01:49:09;9.90;99.90
30889;DHT22;51092;50.874;7.024;2023-05-14T01:50:11;9.90;99.90
30889;DHT22;51092;50.874;7.024;2023-05-14T01:51:13;9.90;99.90
30889;DHT22;51092;50.874;7.024;2023-05-14T01:52:17;9.90;99.90
30889;DHT22;51092;50.874;7.024;2023-05-14T01:53:21;9.90;99.90
30889;DHT22;51092;50.874;7.024;2023-05-14T01:54:23;9.90;99.90
30889;DHT22;51092;50.874;7.024;2023-05-14T01:55:25;9.90;99.90
30889;DHT22;51092;50.874;7.024;2023-05-14T01:56:28;9.90;99.90
30889;DHT22;51092;50.874;7.024;2023-05-14T01:57:29;10.00;99.90
30889;DHT22;51092;50.874;7.024;2023-05-14T01:58:32;10.00;99.90
30889;DHT22;51092;50.874;7.024;2023-05-14T01:59:33;10.10;99.90
30889;DHT22;51092;50.874;7.024;2023-05-14T02:00:36;10.10;99.90
30889;DHT22;51092;50.874;7.024;2023-05-14T02:01:38;10.00;99.90
30889;DHT22;51092;50.874;7.024;2023-05-14T02:02:40;10.10;99.90
30889;DHT22;51092;50.874;7.024;2023-05-14T02:03:42;10.10;99.90
30889;DHT22;51092;50.874;7.024;2023-05-14T02:04:44;10.20;99.90
30889;DHT22;51092;50.874;7.024;2023-05-14T02:05:46;10.10;99.90
30889;DHT22;51092;50.874;7.024;2023-05-14T02:06:49;10.20;99.90
30889;DHT22;51092;50.874;7.024;2023-05-14T02:07:51;10.20;99.90
30889;DHT22;51092;50.874;7.024;2023-05-14T02:08:54;10.10;99.90
30889;DHT22;51092;50.874;7.024;2023-05-14T02:09:56;10.10;99.90
30889;DHT22;51092;50.874;7.024;2023-05-14T02:10:58;10.30;99.90
30889;DHT22;51092;50.874;7.024;2023-05-14T02:12:00;10.20;99.90
30889;DHT22;51092;50.874;7.024;2023-05-14T02:13:02;10.20;99.90
30889;DHT22;51092;50.874;7.024;2023-05-14T02:14:04;10.10;99.90
30889;DHT22;51092;50.874;7.024;2023-05-14T02:15:07;10.10;99.90
30889;DHT22;51092;50.874;7.024;2023-05-14T02:16:11;10.10;99.90
30889;DHT22;51092;50.874;7.024;2023-05-14T02:17:13;10.10;99.90
30889;DHT22;51092;50.874;7.024;2023-05-14T02:18:16;10.10;99.90
30889;DHT22;51092;50.874;7.024;2023-05-14T02:19:19;10.10;99.90
30889;DHT22;51092;50.874;7.024;2023-05-14T02:20:21;10.10;99.90
30889;DHT22;51092;50.874;7.024;2023-05-14T02:21:23;10.10;99.90
30889;DHT22;51092;50.874;7.024;2023-05-14T02:22:25;10.10;99.90
30889;DHT22;51092;50.874;7.024;2023-05-14T02:23:28;10.10;99.90
30889;DHT22;51092;50.874;7.024;2023-05-14T02:24:30;10.10;99.90
30889;DHT22;51092;50.874;7.024;2023-05-14T02:25:32;10.00;99.90
30889;DHT22;51092;50.874;7.024;2023-05-14T02:26:34;10.00;99.90
30889;DHT22;51092;50.874;7.024;2023-05-14T02:27:36;9.90;99.90
30889;DHT22;51092;50.874;7.024;2023-05-14T02:28:38;9.90;99.90
30889;DHT22;51092;50.874;7.024;2023-05-14T02:29:40;9.90;99.90
30889;DHT22;51092;50.874;7.024;2023-05-14T02:30:41;9.90;99.90
30889;DHT22;51092;50.874;7.024;2023-05-14T02:31:44;9.80;99.90
30889;DHT22;51092;50.874;7.024;2023-05-14T02:32:45;9.90;99.90
30889;DHT22;51092;50.874;7.024;2023-05-14T02:33:48;9.90;99.90
30889;DHT22;51092;50.874;7.024;2023-05-14T02:34:49;9.80;99.90
30889;DHT22;51092;50.874;7.024;2023-05-14T02:35:52;9.90;99.90
30889;DHT22;51092;50.874;7.024;2023-05-14T02:36:53;9.80;99.90
30889;DHT22;51092;50.874;7.024;2023-05-14T02:37:56;9.80;99.90
30889;DHT22;51092;50.874;7.024;2023-05-14T02:39:00;9.80;99.90
30889;DHT22;51092;50.874;7.024;2023-05-14T02:40:05;9.80;99.90
30889;DHT22;51092;50.874;7.024;2023-05-14T02:41:07;9.80;99.90
30889;DHT22;51092;50.874;7.024;2023-05-14T02:42:09;9.90;99.90
30889;DHT22;51092;50.874;7.024;2023-05-14T02:43:11;9.90;99.90
30889;DHT22;51092;50.874;7.024;2023-05-14T02:44:13;9.90;99.90
30889;DHT22;51092;50.874;7.024;2023-05-14T02:45:15;9.80;99.90
30889;DHT22;51092;50.874;7.024;2023-05-14T02:46:18;9.80;99.90
30889;DHT22;51092;50.874;7.024;2023-05-14T02:47:19;9.80;99.90
30889;DHT22;51092;50.874;7.024;2023-05-14T02:48:22;9.80;99.90
30889;DHT22;51092;50.874;7.024;2023-05-14T02:49:23;9.80;99.90
30889;DHT22;51092;50.874;7.024;2023-05-14T02:50:25;9.80;99.90
30889;DHT22;51092;50.874;7.024;2023-05-14T02:51:26;9.80;99.90
30889;DHT22;51092;50.874;7.024;2023-05-14T02:52:28;9.70;99.90
30889;DHT22;51092;50.874;7.024;2023-05-14T02:53:29;9.70;99.90
30889;DHT22;51092;50.874;7.024;2023-05-14T02:54:33;9.70;99.90
30889;DHT22;51092;50.874;7.024;2023-05-14T02:55:34;9.60;99.90
30889;DHT22;51092;50.874;7.024;2023-05-14T02:56:37;9.70;99.90
30889;DHT22;51092;50.874;7.024;2023-05-14T02:57:39;9.70;99.90
30889;DHT22;51092;50.874;7.024;2023-05-14T02:58:42;9.70;99.90
30889;DHT22;51092;50.874;7.024;2023-05-14T02:59:44;9.70;99.90
30889;DHT22;51092;50.874;7.024;2023-05-14T03:00:46;9.60;99.90
30889;DHT22;51092;50.874;7.024;2023-05-14T03:01:48;9.60;99.90
30889;DHT22;51092;50.874;7.024;2023-05-14T03:02:50;9.60;99.90
30889;DHT22;51092;50.874;7.024;2023-05-14T03:03:52;9.50;99.90
30889;DHT22;51092;50.874;7.024;2023-05-14T03:04:54;9.60;99.90
30889;DHT22;51092;50.874;7.024;2023-05-14T03:05:56;9.50;99.90
30889;DHT22;51092;50.874;7.024;2023-05-14T03:06:58;9.50;99.90
30889;DHT22;51092;50.874;7.024;2023-05-14T03:08:00;9.50;99.90
30889;DHT22;51092;50.874;7.024;2023-05-14T03:09:02;9.50;99.90
30889;DHT22;51092;50.874;7.024;2023-05-14T03:10:06;9.50;99.90
30889;DHT22;51092;50.874;7.024;2023-05-14T03:11:09;9.40;99.90
30889;DHT22;51092;50.874;7.024;2023-05-14T03:12:10;9.40;99.90
30889;DHT22;51092;50.874;7.024;2023-05-14T03:13:14;9.40;99.90
30889;DHT22;51092;50.874;7.024;2023-05-14T03:14:18;9.40;99.90
30889;DHT22;51092;50.874;7.024;2023-05-14T03:15:20;9.40;99.90
30889;DHT22;51092;50.874;7.024;2023-05-14T03:16:22;9.40;99.90
30889;DHT22;51092;50.874;7.024;2023-05-14T03:17:24;9.40;99.90
30889;DHT22;51092;50.874;7.024;2023-05-14T03:18:26;9.40;99.90
30889;DHT22;51092;50.874;7.024;2023-05-14T03:19:30;9.30;99.90
30889;DHT22;51092;50.874;7.024;2023-05-14T03:20:32;9.30;99.90
30889;DHT22;51092;50.874;7.024;2023-05-14T03:21:34;9.30;99.90
30889;DHT22;51092;50.874;7.024;2023-05-14T03:22:36;9.30;99.90
30889;DHT22;51092;50.874;7.024;2023-05-14T03:23:38;9.20;99.90
30889;DHT22;51092;50.874;7.024;2023-05-14T03:24:40;9.30;99.90
30889;DHT22;51092;50.874;7.024;2023-05-14T03:25:43;9.30;99.90
30889;DHT22;51092;50.874;7.024;2023-05-14T03:26:45;9.30;99.90
30889;DHT22;51092;50.874;7.024;2023-05-14T03:27:47;9.30;99.90
30889;DHT22;51092;50.874;7.024;2023-05-14T03:28:50;9.20;99.90
30889;DHT22;51092;50.874;7.024;2023-05-14T03:29:52;9.20;99.90
30889;DHT22;51092;50.874;7.024;2023-05-14T03:30:54;9.20;99.90
30889;DHT22;51092;50.874;7.024;2023-05-14T03:31:56;9.10;99.90
30889;DHT22;51092;50.874;7.024;2023-05-14T03:32:57;9.10;99.90
30889;DHT22;51092;50.874;7.024;2023-05-14T03:33:59;9.10;99.90
30889;DHT22;51092;50.874;7.024;2023-05-14T03:35:00;9.00;99.90
30889;DHT22;51092;50.874;7.024;2023-05-14T03:36:03;9.00;99.90
30889;DHT22;51092;50.874;7.024;2023-05-14T03:37:06;8.90;99.90
30889;DHT22;51092;50.874;7.024;2023-05-14T03:38:07;8.90;99.90
30889;DHT22;51092;50.874;7.024;2023-05-14T03:39:10;8.90;99.90
30889;DHT22;51092;50.874;7.024;2023-05-14T03:40:12;8.90;99.90
30889;DHT22;51092;50.874;7.024;2023-05-14T03:41:15;8.90;99.90
30889;DHT22;51092;50.874;7.024;2023-05-14T03:42:18;8.90;99.90
30889;DHT22;51092;50.874;7.024;2023-05-14T03:43:21;9.00;99.90
30889;DHT22;51092;50.874;7.024;2023-05-14T03:44:22;8.90;99.90
30889;DHT22;51092;50.874;7.024;2023-05-14T03:45:25;9.00;99.90
30889;DHT22;51092;50.874;7.024;2023-05-14T03:46:28;8.90;99.90
30889;DHT22;51092;50.874;7.024;2023-05-14T03:47:31;9.00;99.90
30889;DHT22;51092;50.874;7.024;2023-05-14T03:48:32;9.10;99.90
30889;DHT22;51092;50.874;7.024;2023-05-14T03:49:35;9.10;99.90
30889;DHT22;51092;50.874;7.024;2023-05-14T03:50:36;9.10;99.90
30889;DHT22;51092;50.874;7.024;2023-05-14T03:51:39;9.00;99.90
30889;DHT22;51092;50.874;7.024;2023-05-14T03:52:40;9.10;99.90
30889;DHT22;51092;50.874;7.024;2023-05-14T03:53:43;9.10;99.90
30889;DHT22;51092;50.874;7.024;2023-05-14T03:54:45;9.10;99.90
30889;DHT22;51092;50.874;7.024;2023-05-14T03:55:48;9.10;99.90
30889;DHT22;51092;50.874;7.024;2023-05-14T03:56:50;9.10;99.90
30889;DHT22;51092;50.874;7.024;2023-05-14T03:57:52;9.10;99.90
30889;DHT22;51092;50.874;7.024;2023-05-14T03:58:53;9.10;99.90
30889;DHT22;51092;50.874;7.024;2023-05-14T03:59:55;9.20;99.90
30889;DHT22;51092;50.874;7.024;2023-05-14T04:00:56;9.20;99.90
30889;DHT22;51092;50.874;7.024;2023-05-14T04:01:58;9.20;99.90
30889;DHT22;51092;50.874;7.024;2023-05-14T04:03:00;9.20;99.90
30889;DHT22;51092;50.874;7.024;2023-05-14T04:04:03;9.20;99.90
30889;DHT22;51092;50.874;7.024;2023-05-14T04:05:04;9.20;99.90
30889;DHT22;51092;50.874;7.024;2023-05-14T04:06:07;9.20;99.90
30889;DHT22;51092;50.874;7.024;2023-05-14T04:07:09;9.20;99.90
30889;DHT22;51092;50.874;7.024;2023-05-14T04:08:11;9.20;99.90
30889;DHT22;51092;50.874;7.024;2023-05-14T04:09:12;9.10;99.90
30889;DHT22;51092;50.874;7.024;2023-05-14T04:10:15;9.10;99.90
30889;DHT22;51092;50.874;7.024;2023-05-14T04:11:16;9.10;99.90
30889;DHT22;51092;50.874;7.024;2023-05-14T04:12:20;9.20;99.90
30889;DHT22;51092;50.874;7.024;2023-05-14T04:13:22;9.20;99.90
30889;DHT22;51092;50.874;7.024;2023-05-14T04:14:24;9.20;99.90
30889;DHT22;51092;50.874;7.024;2023-05-14T04:15:26;9.20;99.90
30889;DHT22;51092;50.874;7.024;2023-05-14T04:16:28;9.20;99.90
30889;DHT22;51092;50.874;7.024;2023-05-14T04:17:30;9.20;99.90
30889;DHT22;51092;50.874;7.024;2023-05-14T04:18:32;9.20;99.90
30889;DHT22;51092;50.874;7.024;2023-05-14T04:19:35;9.20;99.90
30889;DHT22;51092;50.874;7.024;2023-05-14T04:20:37;9.20;99.90
30889;DHT22;51092;50.874;7.024;2023-05-14T04:21:39;9.20;99.90
30889;DHT22;51092;50.874;7.024;2023-05-14T04:22:41;9.20;99.90
30889;DHT22;51092;50.874;7.024;2023-05-14T04:23:43;9.20;99.90
30889;DHT22;51092;50.874;7.024;2023-05-14T04:24:46;9.30;99.90
30889;DHT22;51092;50.874;7.024;2023-05-14T04:25:47;9.30;99.90
30889;DHT22;51092;50.874;7.024;2023-05-14T04:26:50;9.30;99.90
30889;DHT22;51092;50.874;7.024;2023-05-14T04:27:53;9.20;99.90
30889;DHT22;51092;50.874;7.024;2023-05-14T04:28:55;9.30;99.90
30889;DHT22;51092;50.874;7.024;2023-05-14T04:29:56;9.30;99.90
30889;DHT22;51092;50.874;7.024;2023-05-14T04:30:59;9.30;99.90
30889;DHT22;51092;50.874;7.024;2023-05-14T04:32:01;9.40;99.90
30889;DHT22;51092;50.874;7.024;2023-05-14T04:33:04;9.40;99.90
30889;DHT22;51092;50.874;7.024;2023-05-14T04:34:06;9.40;99.90
30889;DHT22;51092;50.874;7.024;2023-05-14T04:35:09;9.50;99.90
30889;DHT22;51092;50.874;7.024;2023-05-14T04:36:10;9.50;99.90
30889;DHT22;51092;50.874;7.024;2023-05-14T04:37:13;9.50;99.90
30889;DHT22;51092;50.874;7.024;2023-05-14T04:38:14;9.50;99.90
30889;DHT22;51092;50.874;7.024;2023-05-14T04:39:17;9.50;99.90
30889;DHT22;51092;50.874;7.024;2023-05-14T04:40:19;9.50;99.90
30889;DHT22;51092;50.874;7.024;2023-05-14T04:41:22;9.60;99.90
30889;DHT22;51092;50.874;7.024;2023-05-14T04:42:24;9.60;99.90
30889;DHT22;51092;50.874;7.024;2023-05-14T04:43:28;9.60;99.90
30889;DHT22;51092;50.874;7.024;2023-05-14T04:44:29;9.70;99.90
30889;DHT22;51092;50.874;7.024;2023-05-14T04:45:32;9.70;99.90
30889;DHT22;51092;50.874;7.024;2023-05-14T04:46:34;9.70;99.90
30889;DHT22;51092;50.874;7.024;2023-05-14T04:47:36;9.80;99.90
30889;DHT22;51092;50.874;7.024;2023-05-14T04:48:38;9.80;99.90
30889;DHT22;51092;50.874;7.024;2023-05-14T04:49:40;9.80;99.90
30889;DHT22;51092;50.874;7.024;2023-05-14T04:50:42;9.70;99.90
30889;DHT22;51092;50.874;7.024;2023-05-14T04:51:45;9.70;99.90
30889;DHT22;51092;50.874;7.024;2023-05-14T04:52:47;9.80;99.90
30889;DHT22;51092;50.874;7.024;2023-05-14T04:53:49;9.80;99.90
30889;DHT22;51092;50.874;7.024;2023-05-14T04:54:51;9.80;99.90
30889;DHT22;51092;50.874;7.024;2023-05-14T04:55:53;9.90;99.90
30889;DHT22;51092;50.874;7.024;2023-05-14T04:56:55;9.90;99.90
30889;DHT22;51092;50.874;7.024;2023-05-14T04:57:57;10.00;99.90
30889;DHT22;51092;50.874;7.024;2023-05-14T04:59:00;10.00;99.90
30889;DHT22;51092;50.874;7.024;2023-05-14T05:00:02;10.00;99.90
30889;DHT22;51092;50.874;7.024;2023-05-14T05:01:05;10.00;99.90
30889;DHT22;51092;50.874;7.024;2023-05-14T05:02:07;10.00;99.90
30889;DHT22;51092;50.874;7.024;2023-05-14T05:03:08;10.00;99.90
30889;DHT22;51092;50.874;7.024;2023-05-14T05:04:10;10.00;99.90
30889;DHT22;51092;50.874;7.024;2023-05-14T05:05:12;10.00;99.90
30889;DHT22;51092;50.874;7.024;2023-05-14T05:06:15;10.00;99.90
30889;DHT22;51092;50.874;7.024;2023-05-14T05:07:17;10.10;99.90
30889;DHT22;51092;50.874;7.024;2023-05-14T05:08:18;10.10;99.90
30889;DHT22;51092;50.874;7.024;2023-05-14T05:09:21;10.00;99.90
30889;DHT22;51092;50.874;7.024;2023-05-14T05:10:22;10.10;99.90
30889;DHT22;51092;50.874;7.024;2023-05-14T05:11:25;10.10;99.90
30889;DHT22;51092;50.874;7.024;2023-05-14T05:12:26;10.10;99.90
30889;DHT22;51092;50.874;7.024;2023-05-14T05:13:30;10.00;99.90
30889;DHT22;51092;50.874;7.024;2023-05-14T05:14:33;10.00;99.90
30889;DHT22;51092;50.874;7.024;2023-05-14T05:15:36;10.00;99.90
30889;DHT22;51092;50.874;7.024;2023-05-14T05:16:38;10.00;99.90
30889;DHT22;51092;50.874;7.024;2023-05-14T05:17:41;10.00;99.90
30889;DHT22;51092;50.874;7.024;2023-05-14T05:18:43;10.00;99.90
30889;DHT22;51092;50.874;7.024;2023-05-14T05:19:45;10.00;99.90
30889;DHT22;51092;50.874;7.024;2023-05-14T05:20:47;10.00;99.90
30889;DHT22;51092;50.874;7.024;2023-05-14T05:21:50;10.00;99.90
30889;DHT22;51092;50.874;7.024;2023-05-14T05:22:51;10.10;99.90
30889;DHT22;51092;50.874;7.024;2023-05-14T05:23:54;10.10;99.90
30889;DHT22;51092;50.874;7.024;2023-05-14T05:24:55;10.20;99.90
30889;DHT22;51092;50.874;7.024;2023-05-14T05:26:00;10.20;99.90
30889;DHT22;51092;50.874;7.024;2023-05-14T05:27:01;10.20;99.90
30889;DHT22;51092;50.874;7.024;2023-05-14T05:28:04;10.20;99.90
30889;DHT22;51092;50.874;7.024;2023-05-14T05:29:06;10.20;99.90
30889;DHT22;51092;50.874;7.024;2023-05-14T05:30:10;10.30;99.90
30889;DHT22;51092;50.874;7.024;2023-05-14T05:31:12;10.20;99.90
30889;DHT22;51092;50.874;7.024;2023-05-14T05:32:14;10.20;99.90
30889;DHT22;51092;50.874;7.024;2023-05-14T05:33:16;10.30;99.90
30889;DHT22;51092;50.874;7.024;2023-05-14T05:34:18;10.20;99.90
30889;DHT22;51092;50.874;7.024;2023-05-14T05:35:20;10.20;99.90
30889;DHT22;51092;50.874;7.024;2023-05-14T05:36:23;10.20;99.90
30889;DHT22;51092;50.874;7.024;2023-05-14T05:37:25;10.20;99.90
30889;DHT22;51092;50.874;7.024;2023-05-14T05:38:28;10.30;99.90
30889;DHT22;51092;50.874;7.024;2023-05-14T05:39:29;10.30;99.90
30889;DHT22;51092;50.874;7.024;2023-05-14T05:40:35;10.30;99.90
30889;DHT22;51092;50.874;7.024;2023-05-14T05:41:36;10.30;99.90
30889;DHT22;51092;50.874;7.024;2023-05-14T05:42:39;10.30;99.90
30889;DHT22;51092;50.874;7.024;2023-05-14T05:43:41;10.30;99.90
30889;DHT22;51092;50.874;7.024;2023-05-14T05:44:43;10.30;99.90
30889;DHT22;51092;50.874;7.024;2023-05-14T05:45:46;10.20;99.90
30889;DHT22;51092;50.874;7.024;2023-05-14T05:46:49;10.20;99.90
30889;DHT22;51092;50.874;7.024;2023-05-14T05:47:51;10.20;99.90
30889;DHT22;51092;50.874;7.024;2023-05-14T05:48:53;10.30;99.90
30889;DHT22;51092;50.874;7.024;2023-05-14T05:49:55;10.30;99.90
30889;DHT22;51092;50.874;7.024;2023-05-14T05:50:57;10.40;99.90
30889;DHT22;51092;50.874;7.024;2023-05-14T05:51:59;10.40;99.90
30889;DHT22;51092;50.874;7.024;2023-05-14T05:53:02;10.50;99.90
30889;DHT22;51092;50.874;7.024;2023-05-14T05:54:04;10.60;99.90
30889;DHT22;51092;50.874;7.024;2023-05-14T05:55:07;10.70;99.90
30889;DHT22;51092;50.874;7.024;2023-05-14T05:56:08;10.80;99.90
30889;DHT22;51092;50.874;7.024;2023-05-14T05:57:10;10.80;99.90
30889;DHT22;51092;50.874;7.024;2023-05-14T05:58:11;10.90;99.90
30889;DHT22;51092;50.874;7.024;2023-05-14T05:59:15;10.90;99.90
30889;DHT22;51092;50.874;7.024;2023-05-14T06:00:17;10.90;99.90
30889;DHT22;51092;50.874;7.024;2023-05-14T06:01:22;11.00;99.90
30889;DHT22;51092;50.874;7.024;2023-05-14T06:02:24;11.10;99.90
30889;DHT22;51092;50.874;7.024;2023-05-14T06:03:26;11.20;99.90
30889;DHT22;51092;50.874;7.024;2023-05-14T06:04:28;11.20;99.90
30889;DHT22;51092;50.874;7.024;2023-05-14T06:05:30;11.40;99.90
30889;DHT22;51092;50.874;7.024;2023-05-14T06:06:32;11.50;99.90
30889;DHT22;51092;50.874;7.024;2023-05-14T06:07:34;11.50;99.90
30889;DHT22;51092;50.874;7.024;2023-05-14T06:08:36;11.50;99.90
30889;DHT22;51092;50.874;7.024;2023-05-14T06:09:38;11.50;99.90
30889;DHT22;51092;50.874;7.024;2023-05-14T06:10:39;11.50;99.90
30889;DHT22;51092;50.874;7.024;2023-05-14T06:11:41;11.80;99.90
30889;DHT22;51092;50.874;7.024;2023-05-14T06:12:42;11.80;99.90
30889;DHT22;51092;50.874;7.024;2023-05-14T06:13:44;11.90;99.90
30889;DHT22;51092;50.874;7.024;2023-05-14T06:14:46;11.90;99.90
30889;DHT22;51092;50.874;7.024;2023-05-14T06:15:48;11.80;99.90
30889;DHT22;51092;50.874;7.024;2023-05-14T06:16:51;11.70;99.90
30889;DHT22;51092;50.874;7.024;2023-05-14T06:17:53;11.70;99.90
30889;DHT22;51092;50.874;7.024;2023-05-14T06:18:55;11.70;99.90
30889;DHT22;51092;50.874;7.024;2023-05-14T06:19:56;11.80;99.90
30889;DHT22;51092;50.874;7.024;2023-05-14T06:20:58;11.80;99.90
30889;DHT22;51092;50.874;7.024;2023-05-14T06:22:00;11.80;99.90
30889;DHT22;51092;50.874;7.024;2023-05-14T06:23:02;11.80;99.90
30889;DHT22;51092;50.874;7.024;2023-05-14T06:24:04;11.80;99.90
30889;DHT22;51092;50.874;7.024;2023-05-14T06:25:07;11.80;99.90
30889;DHT22;51092;50.874;7.024;2023-05-14T06:26:08;11.80;99.90
30889;DHT22;51092;50.874;7.024;2023-05-14T06:27:11;11.90;99.90
30889;DHT22;51092;50.874;7.024;2023-05-14T06:28:11;12.00;99.90
30889;DHT22;51092;50.874;7.024;2023-05-14T06:29:13;12.00;99.90
30889;DHT22;51092;50.874;7.024;2023-05-14T06:30:15;11.90;99.90
30889;DHT22;51092;50.874;7.024;2023-05-14T06:31:18;11.90;99.90
30889;DHT22;51092;50.874;7.024;2023-05-14T06:32:21;12.00;99.90
30889;DHT22;51092;50.874;7.024;2023-05-14T06:33:22;12.00;99.90
30889;DHT22;51092;50.874;7.024;2023-05-14T06:34:30;12.10;99.90
30889;DHT22;51092;50.874;7.024;2023-05-14T06:35:32;12.10;99.90
30889;DHT22;51092;50.874;7.024;2023-05-14T06:36:34;12.20;99.90
30889;DHT22;51092;50.874;7.024;2023-05-14T06:37:36;12.20;99.90